Aguilares, Texas
Current Conditions -  °F | °C
As of 9:35 AM on Thursday 23 Oct 2014 (Local Time) from KHBV Reporting Station
Scattered Clouds Scattered Clouds  
Wind Chill: 21°   Ceiling: Unl
Heat Index: 21°   Visibility: 10mi
Dew Point: 18°   Wind: 5mph
Humidity: 84%   Direction: 40°NE
Pressure: 30.12"   Gusts: NA
Location:  27.4459°N, 99.0184°W
Report Text: KHBV 231435Z AUTO 04004KT 10SM SCT095 21/18 A3012 RMK AO2 T02070179 PWINO
Loading
Personal Weather Stations






























Interactive Weather Map
Tropical Storm Tracking
New forecast layout! Learn more

10-Day Weather Forecast

Advertisements
Track Severe Weather on mobile